createdAt,value
2019-04-28T00:00:33.351Z,93.50
2019-04-28T00:03:01.695Z,92.48
2019-04-28T00:05:30.908Z,92.04
2019-04-28T00:08:01.143Z,91.77
2019-04-28T00:10:31.844Z,91.30
2019-04-28T00:13:01.271Z,90.87
2019-04-28T00:15:30.866Z,90.98
2019-04-28T00:17:59.568Z,91.59
2019-04-28T00:20:45.771Z,92.47
2019-04-28T00:23:25.876Z,92.96
2019-04-28T00:26:11.400Z,92.77
2019-04-28T00:28:41.581Z,92.99
2019-04-28T00:31:11.321Z,92.93
2019-04-28T00:33:41.027Z,91.90
2019-04-28T00:36:11.552Z,92.12
2019-04-28T00:38:41.488Z,91.64
2019-04-28T00:41:10.995Z,91.09
2019-04-28T00:43:39.305Z,91.71
2019-04-28T00:46:08.610Z,91.04
2019-04-28T00:48:36.885Z,91.16
2019-04-28T00:51:04.790Z,91.44
2019-04-28T00:53:33.275Z,91.56
2019-04-28T00:56:02.165Z,91.10
2019-04-28T00:58:31.936Z,90.52
2019-04-28T01:01:03.114Z,90.10
2019-04-28T01:03:32.152Z,89.42
2019-04-28T01:06:01.762Z,88.46
2019-04-28T01:08:30.900Z,88.21
2019-04-28T01:10:59.294Z,88.31
2019-04-28T01:13:27.232Z,88.71
2019-04-28T01:16:02.675Z,88.92
2019-04-28T01:18:40.486Z,88.72
2019-04-28T01:21:10.692Z,88.17
2019-04-28T01:23:40.234Z,88.60
2019-04-28T01:26:10.396Z,88.35
2019-04-28T01:28:39.775Z,88.28
2019-04-28T01:31:32.919Z,88.52
2019-04-28T01:34:19.839Z,88.94
2019-04-28T01:36:49.548Z,88.89
2019-04-28T01:39:20.065Z,88.69
2019-04-28T01:41:49.629Z,88.59
2019-04-28T01:44:17.400Z,88.83
2019-04-28T01:46:45.637Z,89.19
2019-04-28T01:49:14.137Z,88.17
2019-04-28T01:51:42.509Z,88.53
2019-04-28T01:54:11.718Z,88.78
2019-04-28T01:56:40.430Z,89.00
2019-04-28T01:59:10.198Z,88.66
2019-04-28T02:01:39.987Z,89.04
2019-04-28T02:04:10.041Z,87.87
2019-04-28T02:06:39.905Z,87.23
2019-04-28T02:09:09.732Z,86.94
2019-04-28T02:11:39.160Z,87.04
2019-04-28T02:14:09.648Z,87.34
2019-04-28T02:16:38.363Z,87.57
2019-04-28T02:19:07.187Z,87.14
2019-04-28T02:21:56.489Z,87.23
2019-04-28T02:24:28.170Z,86.78
2019-04-28T02:26:56.739Z,86.15
2019-04-28T02:29:25.019Z,86.32
2019-04-28T02:31:52.527Z,86.47
2019-04-28T02:34:21.156Z,87.25
2019-04-28T02:36:50.581Z,86.67
2019-04-28T02:39:20.676Z,86.84
2019-04-28T02:41:51.213Z,86.87
2019-04-28T02:44:20.676Z,86.27
2019-04-28T02:46:50.754Z,86.81
2019-04-28T02:49:26.935Z,86.84
2019-04-28T02:52:03.079Z,87.12
2019-04-28T02:54:31.764Z,87.94
2019-04-28T02:57:01.412Z,87.01
2019-04-28T02:59:30.421Z,86.81
2019-04-28T03:02:00.644Z,86.47
2019-04-28T03:04:30.766Z,86.76
2019-04-28T03:07:01.385Z,87.04
2019-04-28T03:09:30.572Z,87.49
2019-04-28T03:12:01.436Z,87.83
2019-04-28T03:14:32.427Z,88.22
2019-04-28T03:17:00.982Z,87.85
2019-04-28T03:19:31.072Z,87.18
2019-04-28T03:22:01.302Z,87.53
2019-04-28T03:24:31.584Z,88.17
2019-04-28T03:27:07.302Z,87.94
2019-04-28T03:29:40.358Z,88.46
2019-04-28T03:32:36.887Z,88.53
2019-04-28T03:34:53.690Z,89.12
2019-04-28T03:37:24.198Z,89.23
2019-04-28T03:39:53.246Z,90.16
2019-04-28T03:42:22.000Z,90.76
2019-04-28T03:44:51.238Z,90.77
2019-04-28T03:47:21.182Z,90.70
2019-04-28T03:49:50.818Z,90.41
2019-04-28T03:52:21.350Z,89.63
2019-04-28T03:54:51.076Z,89.70
2019-04-28T03:57:21.575Z,90.53
2019-04-28T03:59:51.122Z,91.13
2019-04-28T04:02:23.626Z,91.18
2019-04-28T04:04:53.648Z,91.37
2019-04-28T04:07:22.095Z,91.67
2019-04-28T04:10:01.003Z,91.79
2019-04-28T04:12:37.811Z,92.01
2019-04-28T04:15:21.780Z,92.41
2019-04-28T04:18:05.196Z,92.45
2019-04-28T04:20:33.435Z,92.34
2019-04-28T04:23:01.780Z,91.89
2019-04-28T04:25:31.424Z,92.01
2019-04-28T04:28:00.363Z,92.32
2019-04-28T04:30:31.167Z,92.38
2019-04-28T04:33:01.306Z,92.59
2019-04-28T04:35:31.586Z,92.14
2019-04-28T04:38:01.108Z,91.97
2019-04-28T04:40:31.623Z,91.64
2019-04-28T04:43:01.677Z,90.90
2019-04-28T04:45:30.712Z,90.44
2019-04-28T04:48:00.560Z,90.12
2019-04-28T04:50:31.369Z,90.37
2019-04-28T04:53:02.649Z,90.54
2019-04-28T04:55:31.930Z,90.71
2019-04-28T04:58:00.735Z,90.48
2019-04-28T05:00:37.248Z,90.83
2019-04-28T05:03:12.848Z,91.36
2019-04-28T05:05:41.346Z,91.50
2019-04-28T05:08:10.523Z,90.85
2019-04-28T05:10:40.362Z,90.67
2019-04-28T05:13:10.213Z,91.17
2019-04-28T05:15:40.035Z,91.04
2019-04-28T05:18:10.026Z,90.88
2019-04-28T05:20:37.927Z,90.84
2019-04-28T05:23:29.756Z,89.57
2019-04-28T05:26:01.489Z,88.82
2019-04-28T05:28:30.638Z,88.97
2019-04-28T05:31:00.074Z,88.74
2019-04-28T05:33:33.739Z,89.16
2019-04-28T05:36:02.623Z,89.57
2019-04-28T05:38:30.386Z,89.75
2019-04-28T05:41:02.404Z,89.01
2019-04-28T05:43:30.017Z,88.79
2019-04-28T05:46:00.297Z,88.70
2019-04-28T05:48:47.500Z,87.95
2019-04-28T05:51:19.865Z,86.80
2019-04-28T05:53:59.505Z,86.58
2019-04-28T05:56:46.758Z,85.37
2019-04-28T05:59:19.485Z,84.87
2019-04-28T06:02:00.484Z,84.31
2019-04-28T06:04:30.406Z,84.07
2019-04-28T06:07:27.835Z,85.03
2019-04-28T06:09:56.230Z,84.97
2019-04-28T06:12:24.680Z,85.28
2019-04-28T06:14:52.659Z,84.90
2019-04-28T06:17:20.814Z,85.09
2019-04-28T06:19:50.526Z,85.76
2019-04-28T06:22:18.531Z,85.20
2019-04-28T06:24:48.666Z,84.73
2019-04-28T06:27:16.957Z,83.38
2019-04-28T06:29:45.092Z,84.82
2019-04-28T06:32:13.510Z,84.36
2019-04-28T06:34:41.758Z,81.88
2019-04-28T06:37:09.791Z,83.15
2019-04-28T06:39:39.798Z,82.43
2019-04-28T06:42:07.844Z,81.67
2019-04-28T06:44:36.178Z,81.44
2019-04-28T06:47:04.490Z,81.09
2019-04-28T06:49:33.455Z,81.42
2019-04-28T06:52:01.695Z,80.60
2019-04-28T06:54:30.482Z,79.09
2019-04-28T06:56:58.706Z,78.53
2019-04-28T06:59:26.559Z,78.75
2019-04-28T07:01:54.920Z,77.15
2019-04-28T07:04:23.126Z,76.45
2019-04-28T07:06:51.716Z,78.10
2019-04-28T07:09:20.329Z,76.85
2019-04-28T07:11:48.842Z,76.90
2019-04-28T07:14:16.656Z,77.85
2019-04-28T07:16:45.146Z,77.11
2019-04-28T07:19:14.749Z,78.55
2019-04-28T07:22:08.109Z,72.63
2019-04-28T07:24:35.670Z,71.75
2019-04-28T07:27:07.173Z,73.79
2019-04-28T07:29:35.396Z,72.31
2019-04-28T07:32:02.970Z,76.45
2019-04-28T07:34:30.906Z,75.36
2019-04-28T07:36:58.820Z,70.91
2019-04-28T07:39:26.697Z,71.69
2019-04-28T07:41:54.960Z,73.48
2019-04-28T07:44:23.261Z,75.22
2019-04-28T07:46:51.244Z,76.61
2019-04-28T07:49:19.201Z,76.27
2019-04-28T07:52:06.376Z,76.43
2019-04-28T07:54:34.703Z,76.83
2019-04-28T07:57:02.981Z,77.18
2019-04-28T07:59:30.866Z,76.78
2019-04-28T08:01:58.886Z,76.40
2019-04-28T08:04:26.851Z,77.19
2019-04-28T08:06:55.453Z,79.73
2019-04-28T08:09:24.189Z,78.33
2019-04-28T08:11:52.453Z,81.14
2019-04-28T08:14:20.438Z,82.90
2019-04-28T08:16:48.312Z,84.95
2019-04-28T08:19:16.537Z,83.43
2019-04-28T08:21:44.774Z,84.68
2019-04-28T08:24:12.655Z,85.47
2019-04-28T08:26:41.250Z,85.03
2019-04-28T08:29:09.902Z,82.77
2019-04-28T08:31:57.203Z,82.71
2019-04-28T08:34:26.276Z,80.67
2019-04-28T08:36:54.626Z,82.21
2019-04-28T08:39:26.549Z,82.29
2019-04-28T08:41:53.245Z,77.43
2019-04-28T08:44:21.860Z,77.83
2019-04-28T08:46:50.521Z,76.04
2019-04-28T08:49:18.755Z,77.80
2019-04-28T08:51:46.950Z,74.23
2019-04-28T08:54:15.183Z,75.53
2019-04-28T08:56:43.415Z,73.98
2019-04-28T08:59:10.620Z,73.15
2019-04-28T09:01:38.562Z,70.85
2019-04-28T09:04:15.123Z,72.04
2019-04-28T09:06:37.722Z,69.27
2019-04-28T09:09:09.629Z,71.76
2019-04-28T09:11:37.935Z,69.96
2019-04-28T09:14:06.222Z,70.09
2019-04-28T09:16:34.106Z,70.22
2019-04-28T09:19:01.998Z,63.25
2019-04-28T09:21:30.602Z,64.49
2019-04-28T09:23:58.845Z,66.52
2019-04-28T09:26:27.107Z,68.91
2019-04-28T09:28:55.280Z,71.28
2019-04-28T09:31:23.554Z,62.82
2019-04-28T09:33:51.862Z,66.54
2019-04-28T09:36:20.258Z,67.47
2019-04-28T09:38:48.862Z,62.50
2019-04-28T09:41:17.399Z,65.22
2019-04-28T09:44:14.276Z,62.18
2019-04-28T09:46:43.420Z,60.84
2019-04-28T09:49:12.131Z,60.10
2019-04-28T09:51:40.455Z,62.79
2019-04-28T09:54:07.947Z,60.52
2019-04-28T09:56:36.707Z,64.11
2019-04-28T09:59:05.103Z,60.39
2019-04-28T10:01:33.692Z,60.66
2019-04-28T10:04:02.157Z,60.80
2019-04-28T10:06:30.650Z,59.85
2019-04-28T10:08:58.954Z,60.84
2019-04-28T10:11:30.721Z,59.53
2019-04-28T10:13:57.123Z,60.93
2019-04-28T10:16:25.919Z,61.03
2019-04-28T10:18:53.767Z,58.79
2019-04-28T10:21:21.434Z,64.81
2019-04-28T10:23:49.591Z,67.73
2019-04-28T10:26:17.626Z,71.03
2019-04-28T10:28:45.810Z,73.35
2019-04-28T10:31:14.286Z,75.44
2019-04-28T10:33:44.922Z,78.08
2019-04-28T10:36:14.743Z,79.38
2019-04-28T10:38:44.558Z,79.67
2019-04-28T10:41:18.296Z,81.16
2019-04-28T10:43:45.857Z,82.73
2019-04-28T10:46:14.133Z,85.08
2019-04-28T10:48:41.733Z,87.00
2019-04-28T10:51:09.967Z,88.01
2019-04-28T10:53:38.461Z,86.15
2019-04-28T10:56:06.744Z,82.56
2019-04-28T10:58:34.925Z,79.85
2019-04-28T11:01:03.105Z,78.10
2019-04-28T11:03:31.786Z,76.97
2019-04-28T11:06:00.379Z,75.87
2019-04-28T11:08:47.909Z,78.12
2019-04-28T11:11:34.061Z,75.27
2019-04-28T11:14:02.753Z,72.97
2019-04-28T11:16:34.622Z,71.76
2019-04-28T11:19:03.147Z,71.92
2019-04-28T11:21:31.517Z,70.57
2019-04-28T11:23:59.591Z,69.22
2019-04-28T11:26:28.231Z,67.62
2019-04-28T11:28:56.981Z,70.00
2019-04-28T11:31:24.678Z,70.04
2019-04-28T11:34:15.526Z,70.42
2019-04-28T11:36:43.762Z,72.28
2019-04-28T11:39:14.748Z,74.86
2019-04-28T11:41:43.366Z,74.63
2019-04-28T11:44:11.926Z,75.53
2019-04-28T11:46:40.217Z,77.47
2019-04-28T11:49:08.517Z,77.59
2019-04-28T11:51:36.784Z,78.14
2019-04-28T11:54:05.072Z,77.29
2019-04-28T11:56:41.324Z,77.66
2019-04-28T11:59:04.288Z,76.30
2019-04-28T12:01:33.081Z,76.75
2019-04-28T12:04:03.228Z,76.26
2019-04-28T12:06:30.761Z,72.85
2019-04-28T12:09:13.652Z,73.53
2019-04-28T12:11:45.257Z,74.04
2019-04-28T12:14:20.281Z,72.03
2019-04-28T12:17:06.127Z,72.88
2019-04-28T12:19:41.327Z,73.23
2019-04-28T12:22:09.856Z,70.49
2019-04-28T12:24:38.148Z,73.06
2019-04-28T12:27:06.775Z,72.83
2019-04-28T12:29:35.279Z,75.61
2019-04-28T12:32:03.847Z,76.60
2019-04-28T12:34:32.013Z,78.85
2019-04-28T12:37:00.651Z,79.21
2019-04-28T12:39:28.577Z,78.98
2019-04-28T12:41:57.233Z,79.46
2019-04-28T12:44:25.710Z,78.13
2019-04-28T12:46:53.960Z,77.67
2019-04-28T12:49:27.447Z,77.45
2019-04-28T12:51:55.727Z,76.63
2019-04-28T12:54:26.183Z,74.11
2019-04-28T12:56:53.716Z,75.59
2019-04-28T12:59:27.047Z,75.96
2019-04-28T13:02:17.812Z,70.66
2019-04-28T13:04:52.262Z,64.41
2019-04-28T13:07:20.624Z,69.00
2019-04-28T13:09:48.597Z,64.32
2019-04-28T13:12:17.225Z,61.55
2019-04-28T13:14:45.463Z,60.19
2019-04-28T13:17:14.017Z,61.68
2019-04-28T13:19:42.673Z,60.78
2019-04-28T13:22:10.899Z,62.45
2019-04-28T13:24:39.222Z,55.90
2019-04-28T13:27:10.111Z,55.51
2019-04-28T13:29:38.250Z,56.06
2019-04-28T13:32:06.401Z,56.17
2019-04-28T13:34:36.751Z,57.14
2019-04-28T13:37:05.079Z,51.08
2019-04-28T13:39:51.294Z,51.29
2019-04-28T13:42:19.642Z,52.06
2019-04-28T13:44:51.362Z,52.48
2019-04-28T13:47:20.038Z,44.22
2019-04-28T13:49:50.780Z,45.71
2019-04-28T13:52:19.394Z,41.89
2019-04-28T13:54:50.193Z,40.24
2019-04-28T13:57:17.998Z,39.51
2019-04-28T13:59:47.094Z,42.77
2019-04-28T14:02:22.618Z,39.40
2019-04-28T14:05:22.534Z,38.55
2019-04-28T14:07:51.078Z,43.81
2019-04-28T14:10:19.539Z,46.79
2019-04-28T14:12:47.132Z,44.95
2019-04-28T14:15:15.035Z,49.28
2019-04-28T14:17:43.747Z,48.34
2019-04-28T14:20:12.263Z,48.25
2019-04-28T14:22:40.099Z,40.08
2019-04-28T14:25:08.917Z,36.27
2019-04-28T14:27:37.638Z,30.63
2019-04-28T14:30:06.173Z,35.25
2019-04-28T14:32:34.426Z,35.57
2019-04-28T14:35:02.933Z,38.30
2019-04-28T14:37:30.976Z,37.44
2019-04-28T14:39:59.670Z,42.01
2019-04-28T14:42:27.543Z,44.06
2019-04-28T14:44:55.874Z,46.08
2019-04-28T14:47:24.578Z,49.45
2019-04-28T14:49:52.519Z,48.12
2019-04-28T14:52:21.159Z,48.23
2019-04-28T14:54:49.412Z,51.32
2019-04-28T14:57:17.752Z,38.63
2019-04-28T14:59:46.498Z,35.59
2019-04-28T15:02:43.108Z,34.25
2019-04-28T15:05:29.112Z,33.77
2019-04-28T15:08:26.303Z,37.72
2019-04-28T15:11:12.902Z,40.21
2019-04-28T15:13:41.189Z,44.99
2019-04-28T15:16:09.566Z,41.35
2019-04-28T15:18:37.542Z,37.65
2019-04-28T15:21:06.179Z,33.27
2019-04-28T15:23:33.763Z,33.76
2019-04-28T15:26:02.489Z,32.55
2019-04-28T15:28:31.124Z,34.48
2019-04-28T15:30:59.720Z,35.62
2019-04-28T15:33:28.452Z,41.02
2019-04-28T15:35:56.372Z,42.46
2019-04-28T15:38:24.740Z,41.42
2019-04-28T15:40:52.998Z,40.36
2019-04-28T15:43:21.740Z,44.83
2019-04-28T15:45:50.359Z,44.93
2019-04-28T15:48:18.954Z,50.70
2019-04-28T15:50:47.301Z,49.55
2019-04-28T15:53:15.868Z,48.64
2019-04-28T15:56:01.433Z,48.07
2019-04-28T15:58:30.567Z,48.26
2019-04-28T16:00:59.080Z,50.68
2019-04-28T16:03:27.739Z,53.10
2019-04-28T16:05:55.942Z,47.02
2019-04-28T16:08:24.628Z,43.99
2019-04-28T16:10:52.487Z,39.98
2019-04-28T16:13:20.348Z,42.08
2019-04-28T16:15:48.334Z,42.61
2019-04-28T16:18:17.095Z,43.32
2019-04-28T16:20:45.407Z,45.43
2019-04-28T16:23:13.725Z,48.38
2019-04-28T16:25:42.048Z,42.33
2019-04-28T16:28:10.778Z,47.33
2019-04-28T16:30:38.874Z,50.49
2019-04-28T16:33:07.107Z,51.60
2019-04-28T16:35:35.712Z,52.66
2019-04-28T16:38:03.891Z,52.22
2019-04-28T16:40:42.762Z,52.72
2019-04-28T16:43:14.072Z,51.91
2019-04-28T16:45:42.253Z,52.36
2019-04-28T16:48:10.080Z,54.86
2019-04-28T16:50:37.884Z,53.59
2019-04-28T16:53:05.752Z,54.03
2019-04-28T16:55:45.308Z,52.99
2019-04-28T16:58:33.228Z,53.66
2019-04-28T17:01:23.941Z,52.92
2019-04-28T17:03:52.534Z,55.86
2019-04-28T17:06:20.521Z,57.74
2019-04-28T17:08:49.178Z,55.03
2019-04-28T17:11:17.398Z,55.81
2019-04-28T17:13:45.325Z,57.42
2019-04-28T17:16:13.732Z,57.56
2019-04-28T17:18:41.989Z,54.83
2019-04-28T17:21:10.693Z,55.06
2019-04-28T17:23:39.223Z,61.04
2019-04-28T17:26:07.050Z,59.42
2019-04-28T17:28:35.641Z,60.64
2019-04-28T17:31:03.957Z,60.42
2019-04-28T17:33:32.301Z,61.16
2019-04-28T17:36:00.695Z,61.70
2019-04-28T17:38:29.075Z,61.17
2019-04-28T17:40:57.380Z,60.78
2019-04-28T17:43:26.014Z,61.67
2019-04-28T17:45:53.932Z,61.77
2019-04-28T17:48:27.704Z,61.62
2019-04-28T17:50:56.425Z,61.61
2019-04-28T17:53:24.521Z,62.42
2019-04-28T17:55:53.289Z,63.51
2019-04-28T17:58:21.889Z,64.10
2019-04-28T18:01:16.053Z,65.23
2019-04-28T18:03:56.944Z,65.60
2019-04-28T18:06:25.549Z,67.49
2019-04-28T18:08:53.484Z,66.99
2019-04-28T18:11:21.976Z,66.96
2019-04-28T18:13:50.299Z,67.95
2019-04-28T18:16:36.343Z,68.07
2019-04-28T18:19:07.548Z,68.02
2019-04-28T18:21:36.162Z,69.03
2019-04-28T18:24:04.089Z,68.53
2019-04-28T18:26:32.474Z,67.93
2019-04-28T18:29:01.337Z,67.91
2019-04-28T18:31:55.415Z,68.51
2019-04-28T18:34:39.545Z,69.31
2019-04-28T18:37:33.321Z,70.26
2019-04-28T18:40:19.743Z,71.24
2019-04-28T18:42:58.168Z,72.10
2019-04-28T18:45:26.970Z,72.33
2019-04-28T18:47:55.828Z,72.13
2019-04-28T18:50:24.113Z,72.44
2019-04-28T18:52:52.475Z,73.66
2019-04-28T18:55:20.728Z,73.99
2019-04-28T18:57:49.378Z,72.72
2019-04-28T19:00:19.990Z,73.65
2019-04-28T19:02:49.082Z,74.48
2019-04-28T19:05:18.668Z,75.70
2019-04-28T19:08:15.645Z,76.24
2019-04-28T19:11:04.371Z,76.88
2019-04-28T19:13:37.700Z,76.39
2019-04-28T19:16:32.275Z,76.87
2019-04-28T19:19:03.498Z,77.24
2019-04-28T19:21:33.239Z,75.68
2019-04-28T19:24:02.688Z,74.80
2019-04-28T19:26:31.599Z,74.02
2019-04-28T19:28:59.687Z,74.31
2019-04-28T19:31:27.999Z,74.80
2019-04-28T19:33:56.640Z,73.95
2019-04-28T19:36:25.165Z,74.94
2019-04-28T19:39:03.157Z,75.30
2019-04-28T19:41:23.655Z,74.86
2019-04-28T19:43:51.272Z,74.59
2019-04-28T19:46:19.572Z,75.38
2019-04-28T19:48:47.090Z,75.47
2019-04-28T19:51:31.075Z,76.74
2019-04-28T19:53:49.063Z,76.92
2019-04-28T19:56:25.654Z,76.75
2019-04-28T19:58:59.978Z,77.14
2019-04-28T20:01:29.378Z,77.28
2019-04-28T20:03:58.156Z,77.56
2019-04-28T20:06:26.994Z,77.98
2019-04-28T20:08:55.982Z,77.76
2019-04-28T20:11:24.178Z,77.62
2019-04-28T20:13:53.163Z,77.95
2019-04-28T20:16:22.221Z,77.75
2019-04-28T20:18:51.100Z,77.67
2019-04-28T20:21:20.022Z,78.19
2019-04-28T20:23:48.653Z,78.70
2019-04-28T20:26:17.064Z,77.93
2019-04-28T20:28:46.166Z,78.82
2019-04-28T20:31:14.984Z,78.08
2019-04-28T20:33:44.483Z,77.91
2019-04-28T20:36:36.177Z,78.23
2019-04-28T20:39:09.727Z,79.12
2019-04-28T20:41:38.868Z,79.55
2019-04-28T20:44:07.428Z,79.16
2019-04-28T20:46:35.515Z,79.26
2019-04-28T20:49:04.750Z,79.36
2019-04-28T20:51:33.352Z,79.70
2019-04-28T20:54:02.349Z,79.72
2019-04-28T20:56:32.204Z,79.86
2019-04-28T20:59:00.391Z,79.64
2019-04-28T21:01:30.000Z,80.48
2019-04-28T21:03:58.280Z,79.87
2019-04-28T21:06:27.317Z,79.36
2019-04-28T21:08:57.114Z,79.56
2019-04-28T21:11:26.495Z,80.42
2019-04-28T21:13:57.231Z,81.05
2019-04-28T21:16:25.929Z,81.53
2019-04-28T21:18:54.938Z,82.04
2019-04-28T21:21:23.521Z,81.37
2019-04-28T21:23:53.106Z,80.48
2019-04-28T21:26:22.698Z,81.64
2019-04-28T21:28:51.760Z,81.60
2019-04-28T21:31:20.931Z,81.70
2019-04-28T21:33:49.947Z,81.90
2019-04-28T21:36:18.633Z,81.98
2019-04-28T21:38:50.360Z,81.38
2019-04-28T21:41:19.279Z,81.35
2019-04-28T21:43:54.617Z,81.24
2019-04-28T21:46:40.462Z,81.48
2019-04-28T21:49:22.015Z,81.38
2019-04-28T21:51:50.080Z,80.82
2019-04-28T21:54:18.880Z,80.29
2019-04-28T21:56:47.021Z,80.78
2019-04-28T21:59:15.984Z,81.18
2019-04-28T22:01:44.898Z,80.83
2019-04-28T22:04:13.647Z,80.39
2019-04-28T22:06:42.204Z,80.89
2019-04-28T22:09:10.915Z,81.62
2019-04-28T22:11:39.442Z,81.16
2019-04-28T22:14:08.235Z,80.83
2019-04-28T22:16:36.574Z,81.37
2019-04-28T22:19:04.840Z,81.60
2019-04-28T22:21:32.738Z,81.99
2019-04-28T22:24:32.734Z,82.50
2019-04-28T22:27:01.176Z,82.58
2019-04-28T22:29:29.801Z,82.78
2019-04-28T22:31:58.043Z,83.13
2019-04-28T22:34:26.638Z,83.60
2019-04-28T22:36:55.386Z,84.48
2019-04-28T22:39:23.577Z,84.73
2019-04-28T22:41:52.024Z,84.89
2019-04-28T22:44:19.541Z,85.40
2019-04-28T22:46:48.054Z,86.06
2019-04-28T22:49:16.683Z,86.24
2019-04-28T22:51:44.948Z,86.01
2019-04-28T22:54:34.890Z,85.96
2019-04-28T22:57:25.328Z,86.09
2019-04-28T22:59:53.523Z,86.36
2019-04-28T23:02:21.710Z,86.15
2019-04-28T23:05:18.642Z,85.91
2019-04-28T23:07:46.833Z,86.22
2019-04-28T23:10:15.718Z,87.28
2019-04-28T23:12:44.231Z,87.78
2019-04-28T23:15:13.966Z,88.16
2019-04-28T23:17:42.285Z,88.65
2019-04-28T23:20:12.473Z,88.75
2019-04-28T23:22:49.367Z,88.91
2019-04-28T23:25:17.269Z,88.97
2019-04-28T23:27:45.963Z,89.16
2019-04-28T23:30:34.961Z,89.20
2019-04-28T23:33:02.792Z,89.25
2019-04-28T23:35:30.659Z,89.43
2019-04-28T23:37:59.244Z,89.45
2019-04-28T23:40:27.838Z,89.62
2019-04-28T23:43:01.283Z,89.94
2019-04-28T23:45:30.069Z,90.21
2019-04-28T23:47:58.274Z,90.19
2019-04-28T23:50:35.595Z,90.51
2019-04-28T23:53:07.269Z,90.70
2019-04-28T23:55:35.453Z,90.70
2019-04-28T23:58:02.989Z,90.23
